createdAt,value
2023-02-23T00:02:05.773Z,97934.09
2023-02-23T00:04:33.814Z,97933.97
2023-02-23T00:07:01.196Z,97934.50
2023-02-23T00:09:35.213Z,97932.75
2023-02-23T00:12:08.048Z,97935.63
2023-02-23T00:14:40.371Z,97928.56
2023-02-23T00:17:14.524Z,97931.88
2023-02-23T00:19:43.579Z,97916.09
2023-02-23T00:22:11.844Z,97926.25
2023-02-23T00:24:40.563Z,97923.53
2023-02-23T00:27:07.903Z,97916.97
2023-02-23T00:29:39.617Z,97918.81
2023-02-23T00:32:07.048Z,97919.88
2023-02-23T00:34:36.630Z,97919.59
2023-02-23T00:37:04.082Z,97917.75
2023-02-23T00:39:31.421Z,97918.13
2023-02-23T00:42:03.470Z,97918.13
2023-02-23T00:44:33.672Z,97920.44
2023-02-23T00:47:03.712Z,97917.50
2023-02-23T00:49:30.652Z,97916.66
2023-02-23T00:51:57.609Z,97919.19
2023-02-23T00:54:25.266Z,97920.41
2023-02-23T00:56:52.650Z,97918.88
2023-02-23T00:59:19.825Z,97919.19
2023-02-23T01:01:47.075Z,97912.72
2023-02-23T01:04:14.665Z,97911.72
2023-02-23T01:06:43.061Z,97912.06
2023-02-23T01:09:16.073Z,97907.81
2023-02-23T01:11:46.626Z,97913.44
2023-02-23T01:14:15.013Z,97915.09
2023-02-23T01:16:42.008Z,97918.25
2023-02-23T01:19:10.819Z,97919.13
2023-02-23T01:21:42.192Z,97914.22
2023-02-23T01:24:11.816Z,97907.19
2023-02-23T01:26:45.029Z,97908.25
2023-02-23T01:29:16.400Z,97905.97
2023-02-23T01:31:47.371Z,97903.22
2023-02-23T01:34:19.139Z,97907.19
2023-02-23T01:36:46.477Z,97905.47
2023-02-23T01:39:18.374Z,97914.19
2023-02-23T01:41:45.827Z,97917.97
2023-02-23T01:44:12.747Z,97914.53
2023-02-23T01:46:46.152Z,97910.31
2023-02-23T01:49:25.634Z,97908.94
2023-02-23T01:52:00.519Z,97913.91
2023-02-23T01:54:36.288Z,97901.94
2023-02-23T01:57:06.522Z,97902.78
2023-02-23T01:59:44.669Z,97895.22
2023-02-23T02:02:13.311Z,97898.78
2023-02-23T02:04:45.653Z,97894.78
2023-02-23T02:07:17.670Z,97895.03
2023-02-23T02:10:10.233Z,97895.69
2023-02-23T02:12:45.731Z,97891.44
2023-02-23T02:15:19.947Z,97891.56
2023-02-23T02:18:11.878Z,97889.53
2023-02-23T02:21:04.619Z,97895.19
2023-02-23T02:24:13.156Z,97891.44
2023-02-23T02:27:08.012Z,97886.91
2023-02-23T02:30:01.803Z,97884.91
2023-02-23T02:33:00.979Z,97880.84
2023-02-23T02:35:51.603Z,97885.16
2023-02-23T02:39:07.074Z,97885.50
2023-02-23T02:42:21.569Z,97880.59
2023-02-23T02:45:45.863Z,97881.38
2023-02-23T02:48:42.038Z,97882.13
2023-02-23T02:51:28.588Z,97877.97
2023-02-23T02:54:06.731Z,97872.63
2023-02-23T02:56:40.369Z,97881.81
2023-02-23T02:59:34.246Z,97880.38
2023-02-23T03:02:20.859Z,97877.28
2023-02-23T03:05:06.853Z,97881.03
2023-02-23T03:08:15.080Z,97879.63
2023-02-23T03:11:20.416Z,97881.63
2023-02-23T03:14:48.318Z,97879.41
2023-02-23T03:18:03.005Z,97876.84
2023-02-23T03:20:51.404Z,97879.84
2023-02-23T03:24:01.270Z,97868.59
2023-02-23T03:27:11.807Z,97876.69
2023-02-23T03:30:00.329Z,97873.69
2023-02-23T03:32:53.546Z,97877.72
2023-02-23T03:36:10.747Z,97883.25
2023-02-23T03:39:01.661Z,97884.00
2023-02-23T03:41:50.088Z,97872.94
2023-02-23T03:44:51.211Z,97879.00
2023-02-23T03:47:42.116Z,97874.06
2023-02-23T03:50:40.024Z,97872.81
2023-02-23T03:53:28.937Z,97874.44
2023-02-23T03:56:17.774Z,97877.47
2023-02-23T03:59:10.607Z,97871.47
2023-02-23T04:01:58.304Z,97874.56
2023-02-23T04:04:46.390Z,97869.34
2023-02-23T04:07:37.476Z,97870.78
2023-02-23T04:10:24.846Z,97876.47
2023-02-23T04:13:16.421Z,97877.66
2023-02-23T04:15:50.969Z,97878.78
2023-02-23T04:18:28.099Z,97878.59
2023-02-23T04:20:57.512Z,97875.88
2023-02-23T04:23:25.481Z,97875.25
2023-02-23T04:25:53.715Z,97869.28
2023-02-23T04:28:22.668Z,97876.22
2023-02-23T04:30:52.449Z,97876.03
2023-02-23T04:33:22.004Z,97875.00
2023-02-23T04:35:49.463Z,97872.63
2023-02-23T04:38:16.911Z,97882.88
2023-02-23T04:40:44.492Z,97880.38
2023-02-23T04:43:13.227Z,97880.78
2023-02-23T04:45:40.915Z,97888.53
2023-02-23T04:48:08.607Z,97889.28
2023-02-23T04:50:35.956Z,97883.50
2023-02-23T04:53:03.265Z,97882.25
2023-02-23T04:55:30.683Z,97877.66
2023-02-23T04:58:00.206Z,97883.00
2023-02-23T05:00:29.321Z,97879.91
2023-02-23T05:02:57.559Z,97880.75
2023-02-23T05:05:25.049Z,97887.66
2023-02-23T05:07:52.978Z,97878.69
2023-02-23T05:10:20.333Z,97876.34
2023-02-23T05:12:47.723Z,97883.13
2023-02-23T05:15:15.227Z,97888.84
2023-02-23T05:17:42.742Z,97885.69
2023-02-23T05:20:13.550Z,97887.41
2023-02-23T05:22:40.630Z,97879.97
2023-02-23T05:25:09.504Z,97878.72
2023-02-23T05:27:37.129Z,97887.72
2023-02-23T05:30:07.828Z,97878.28
2023-02-23T05:32:35.458Z,97885.91
2023-02-23T05:35:03.202Z,97887.16
2023-02-23T05:37:30.598Z,97887.16
2023-02-23T05:39:57.935Z,97879.41
2023-02-23T05:42:25.306Z,97888.78
2023-02-23T05:44:52.678Z,97889.25
2023-02-23T05:47:20.016Z,97883.19
2023-02-23T05:49:47.106Z,97885.13
2023-02-23T05:52:14.043Z,97884.56
2023-02-23T05:54:41.326Z,97884.13
2023-02-23T05:57:08.760Z,97884.78
2023-02-23T05:59:36.129Z,97887.53
2023-02-23T06:02:05.926Z,97880.44
2023-02-23T06:04:33.603Z,97879.97
2023-02-23T06:07:00.932Z,97886.28
2023-02-23T06:09:28.362Z,97887.44
2023-02-23T06:11:55.685Z,97886.63
2023-02-23T06:14:23.014Z,97887.66
2023-02-23T06:16:50.588Z,97897.03
2023-02-23T06:19:18.059Z,97890.78
2023-02-23T06:21:45.856Z,97896.09
2023-02-23T06:24:13.444Z,97898.09
2023-02-23T06:26:42.367Z,97903.91
2023-02-23T06:29:11.973Z,97907.19
2023-02-23T06:31:39.544Z,97911.06
2023-02-23T06:34:06.970Z,97920.22
2023-02-23T06:36:34.470Z,97913.72
2023-02-23T06:39:02.086Z,97912.09
2023-02-23T06:41:29.496Z,97906.88
2023-02-23T06:43:56.851Z,97915.28
2023-02-23T06:46:24.658Z,97912.25
2023-02-23T06:48:55.937Z,97924.41
2023-02-23T06:51:23.793Z,97913.59
2023-02-23T06:53:53.313Z,97919.69
2023-02-23T06:56:20.433Z,97922.47
2023-02-23T06:58:48.031Z,97930.84
2023-02-23T07:01:15.887Z,97923.06
2023-02-23T07:03:43.432Z,97929.38
2023-02-23T07:06:10.862Z,97926.66
2023-02-23T07:08:38.758Z,97920.72
2023-02-23T07:11:11.159Z,97934.91
2023-02-23T07:13:38.551Z,97943.47
2023-02-23T07:16:07.203Z,97952.81
2023-02-23T07:18:34.953Z,97947.38
2023-02-23T07:21:02.295Z,97956.47
2023-02-23T07:23:29.669Z,97960.94
2023-02-23T07:25:58.039Z,97944.03
2023-02-23T07:28:27.344Z,97938.06
2023-02-23T07:30:57.371Z,97943.16
2023-02-23T07:33:25.290Z,97939.66
2023-02-23T07:35:52.817Z,97960.31
2023-02-23T07:38:20.432Z,97957.41
2023-02-23T07:40:49.586Z,97960.53
2023-02-23T07:43:16.940Z,97963.09
2023-02-23T07:45:46.502Z,97954.84
2023-02-23T07:48:13.679Z,97967.25
2023-02-23T07:50:42.384Z,97961.16
2023-02-23T07:53:10.077Z,97966.13
2023-02-23T07:55:38.453Z,97959.91
2023-02-23T07:58:06.683Z,97962.00
2023-02-23T08:00:35.038Z,97965.38
2023-02-23T08:03:02.423Z,97978.03
2023-02-23T08:05:30.409Z,97979.38
2023-02-23T08:07:59.153Z,97973.03
2023-02-23T08:10:26.785Z,97975.41
2023-02-23T08:12:54.271Z,97963.56
2023-02-23T08:15:21.630Z,97971.19
2023-02-23T08:17:49.060Z,97974.84
2023-02-23T08:20:16.429Z,97979.44
2023-02-23T08:22:49.650Z,97987.69
2023-02-23T08:25:18.040Z,97988.09
2023-02-23T08:27:45.877Z,97988.97
2023-02-23T08:30:15.775Z,97978.63
2023-02-23T08:32:44.620Z,97968.69
2023-02-23T08:35:12.825Z,97967.81
2023-02-23T08:37:41.854Z,97970.63
2023-02-23T08:40:10.307Z,97977.81
2023-02-23T08:42:38.248Z,97970.25
2023-02-23T08:45:08.585Z,97977.88
2023-02-23T08:47:36.909Z,97971.47
2023-02-23T08:50:05.692Z,97981.28
2023-02-23T08:52:34.105Z,97986.63
2023-02-23T08:55:01.648Z,97978.63
2023-02-23T08:57:29.620Z,97990.81
2023-02-23T08:59:57.137Z,97984.16
2023-02-23T09:02:24.936Z,98006.38
2023-02-23T09:04:55.283Z,97986.31
2023-02-23T09:07:23.525Z,97989.47
2023-02-23T09:09:56.395Z,97989.72
2023-02-23T09:12:23.820Z,98007.78
2023-02-23T09:14:53.711Z,98019.00
2023-02-23T09:17:22.975Z,98011.25
2023-02-23T09:19:51.281Z,98011.22
2023-02-23T09:22:20.861Z,98015.56
2023-02-23T09:24:48.446Z,98007.47
2023-02-23T09:27:18.558Z,98008.47
2023-02-23T09:29:45.926Z,98009.78
2023-02-23T09:32:15.676Z,98000.84
2023-02-23T09:34:43.356Z,97994.00
2023-02-23T09:37:10.683Z,97990.50
2023-02-23T09:39:39.164Z,97989.09
2023-02-23T09:42:26.538Z,97994.19
2023-02-23T09:45:39.918Z,97992.16
2023-02-23T09:48:23.045Z,98007.09
2023-02-23T09:50:58.311Z,98002.72
2023-02-23T09:53:40.998Z,98010.16
2023-02-23T09:56:23.675Z,98000.34
2023-02-23T09:58:51.026Z,98002.56
2023-02-23T10:01:49.078Z,98004.97
2023-02-23T10:04:24.213Z,97995.34
2023-02-23T10:07:09.425Z,97994.47
2023-02-23T10:10:07.385Z,97999.56
2023-02-23T10:13:09.436Z,97993.25
2023-02-23T10:16:04.361Z,97991.09
2023-02-23T10:19:04.444Z,97999.97
2023-02-23T10:21:40.008Z,98007.50
2023-02-23T10:24:33.797Z,97994.56
2023-02-23T10:27:12.572Z,97991.97
2023-02-23T10:29:51.912Z,97991.50
2023-02-23T10:32:43.071Z,97989.06
2023-02-23T10:35:19.334Z,97997.91
2023-02-23T10:37:47.682Z,97998.59
2023-02-23T10:40:18.548Z,97991.31
2023-02-23T10:42:45.893Z,97971.78
2023-02-23T10:45:23.001Z,97979.16
2023-02-23T10:48:06.234Z,97979.56
2023-02-23T10:50:36.706Z,97978.53
2023-02-23T10:53:18.343Z,97978.25
2023-02-23T10:55:47.083Z,97980.66
2023-02-23T10:58:20.569Z,97975.03
2023-02-23T11:01:02.968Z,97985.25
2023-02-23T11:03:36.553Z,97986.41
2023-02-23T11:06:04.173Z,97968.94
2023-02-23T11:08:39.544Z,97968.09
2023-02-23T11:11:15.928Z,97970.97
2023-02-23T11:13:46.761Z,97979.13
2023-02-23T11:16:25.435Z,97975.47
2023-02-23T11:19:01.114Z,97970.13
2023-02-23T11:21:35.477Z,97966.28
2023-02-23T11:24:18.112Z,97975.66
2023-02-23T11:26:47.779Z,97963.84
2023-02-23T11:29:22.759Z,97967.28
2023-02-23T11:31:58.440Z,97972.19
2023-02-23T11:34:35.393Z,97958.94
2023-02-23T11:37:27.083Z,97956.19
2023-02-23T11:39:59.741Z,97949.72
2023-02-23T11:42:35.612Z,97951.06
2023-02-23T11:45:08.138Z,97950.09
2023-02-23T11:47:41.443Z,97944.22
2023-02-23T11:50:22.221Z,97938.88
2023-02-23T11:53:02.028Z,97935.38
2023-02-23T11:55:31.671Z,97928.41
2023-02-23T11:58:37.615Z,97929.31
2023-02-23T12:01:12.181Z,97923.59
2023-02-23T12:03:47.830Z,97916.03
2023-02-23T12:06:36.350Z,97917.13
2023-02-23T12:09:28.159Z,97914.56
2023-02-23T12:12:14.192Z,97905.59
2023-02-23T12:14:53.945Z,97916.38
2023-02-23T12:17:28.357Z,97921.22
2023-02-23T12:20:16.540Z,97911.03
2023-02-23T12:22:52.438Z,97904.41
2023-02-23T12:25:55.998Z,97908.41
2023-02-23T12:28:52.975Z,97896.56
2023-02-23T12:31:40.439Z,97903.88
2023-02-23T12:34:40.091Z,97894.13
2023-02-23T12:37:09.927Z,97895.63
2023-02-23T12:39:43.728Z,97897.31
2023-02-23T12:42:23.914Z,97894.50
2023-02-23T12:45:06.026Z,97895.00
2023-02-23T12:47:59.345Z,97895.44
2023-02-23T12:50:43.440Z,97893.19
2023-02-23T12:53:37.728Z,97894.22
2023-02-23T12:56:46.782Z,97892.50
2023-02-23T13:00:24.021Z,97885.59
2023-02-23T13:03:40.207Z,97877.63
2023-02-23T13:06:36.843Z,97882.53
2023-02-23T13:09:29.843Z,97881.47
2023-02-23T13:12:30.181Z,97881.38
2023-02-23T13:15:15.655Z,97876.56
2023-02-23T13:17:51.781Z,97878.88
2023-02-23T13:20:25.348Z,97878.06
2023-02-23T13:23:12.754Z,97877.66
2023-02-23T13:26:09.886Z,97877.78
2023-02-23T13:29:07.809Z,97890.47
2023-02-23T13:31:38.666Z,97871.56
2023-02-23T13:34:11.905Z,97875.25
2023-02-23T13:36:40.733Z,97872.78
2023-02-23T13:39:45.152Z,97867.69
2023-02-23T13:42:56.688Z,97862.63
2023-02-23T13:45:32.384Z,97866.25
2023-02-23T13:48:31.668Z,97862.38
2023-02-23T13:51:30.482Z,97854.84
2023-02-23T13:54:33.150Z,97859.78
2023-02-23T13:57:05.726Z,97858.66
2023-02-23T13:59:43.541Z,97868.00
2023-02-23T14:02:35.860Z,97860.97
2023-02-23T14:05:20.915Z,97860.47
2023-02-23T14:07:54.973Z,97851.84
2023-02-23T14:10:25.783Z,97854.19
2023-02-23T14:13:15.528Z,97855.06
2023-02-23T14:15:53.608Z,97845.72
2023-02-23T14:18:21.055Z,97850.47
2023-02-23T14:21:15.980Z,97849.06
2023-02-23T14:24:21.503Z,97849.59
2023-02-23T14:27:41.598Z,97849.44
2023-02-23T14:30:12.124Z,97847.47
2023-02-23T14:32:45.634Z,97842.78
2023-02-23T14:35:34.427Z,97846.63
2023-02-23T14:38:10.257Z,97843.13
2023-02-23T14:40:43.394Z,97842.72
2023-02-23T14:43:51.380Z,97842.41
2023-02-23T14:46:22.034Z,97838.19
2023-02-23T14:49:10.247Z,97843.94
2023-02-23T14:51:48.529Z,97844.88
2023-02-23T14:54:36.166Z,97836.63
2023-02-23T14:57:19.139Z,97842.84
2023-02-23T15:00:02.738Z,97835.84
2023-02-23T15:02:31.245Z,97834.63
2023-02-23T15:04:58.650Z,97836.28
2023-02-23T15:07:40.297Z,97843.09
2023-02-23T15:10:17.708Z,97846.66
2023-02-23T15:12:47.081Z,97849.34
2023-02-23T15:15:20.473Z,97858.47
2023-02-23T15:17:53.315Z,97851.97
2023-02-23T15:20:28.644Z,97857.03
2023-02-23T15:22:59.184Z,97859.31
2023-02-23T15:25:35.044Z,97865.75
2023-02-23T15:28:29.594Z,97863.03
2023-02-23T15:31:01.128Z,97863.78
2023-02-23T15:33:28.958Z,97857.63
2023-02-23T15:36:10.102Z,97858.97
2023-02-23T15:38:46.011Z,97862.28
2023-02-23T15:41:37.219Z,97866.44
2023-02-23T15:44:22.752Z,97868.47
2023-02-23T15:47:00.317Z,97869.09
2023-02-23T15:49:37.911Z,97871.72
2023-02-23T15:52:15.578Z,97868.47
2023-02-23T15:55:10.111Z,97870.13
2023-02-23T15:58:00.068Z,97872.13
2023-02-23T16:00:38.454Z,97872.25
2023-02-23T16:03:07.958Z,97872.38
2023-02-23T16:05:46.517Z,97883.16
2023-02-23T16:08:25.263Z,97879.69
2023-02-23T16:11:02.237Z,97877.41
2023-02-23T16:13:29.237Z,97874.19
2023-02-23T16:15:57.020Z,97873.56
2023-02-23T16:18:36.029Z,97879.69
2023-02-23T16:21:04.815Z,97873.38
2023-02-23T16:23:41.138Z,97883.38
2023-02-23T16:26:12.875Z,97875.00
2023-02-23T16:28:45.915Z,97886.25
2023-02-23T16:31:14.538Z,97883.56
2023-02-23T16:33:52.926Z,97885.84
2023-02-23T16:36:24.117Z,97887.44
2023-02-23T16:39:02.932Z,97886.44
2023-02-23T16:41:34.476Z,97881.91
2023-02-23T16:44:07.374Z,97880.47
2023-02-23T16:47:03.164Z,97878.25
2023-02-23T16:49:30.585Z,97886.41
2023-02-23T16:51:59.466Z,97887.41
2023-02-23T16:54:27.110Z,97885.19
2023-02-23T16:56:56.026Z,97877.28
2023-02-23T16:59:24.149Z,97879.47
2023-02-23T17:01:51.574Z,97884.19
2023-02-23T17:04:20.744Z,97885.00
2023-02-23T17:06:57.637Z,97883.00
2023-02-23T17:09:25.363Z,97884.41
2023-02-23T17:11:52.658Z,97880.31
2023-02-23T17:14:28.257Z,97877.63
2023-02-23T17:16:55.362Z,97891.72
2023-02-23T17:19:24.657Z,97885.44
2023-02-23T17:21:53.019Z,97885.81
2023-02-23T17:24:24.406Z,97884.81
2023-02-23T17:26:55.448Z,97891.31
2023-02-23T17:29:22.621Z,97899.72
2023-02-23T17:31:50.544Z,97896.03
2023-02-23T17:34:17.795Z,97897.47
2023-02-23T17:36:45.120Z,97897.66
2023-02-23T17:39:14.314Z,97904.41
2023-02-23T17:41:41.471Z,97901.75
2023-02-23T17:44:09.018Z,97909.22
2023-02-23T17:46:36.393Z,97907.19
2023-02-23T17:49:03.763Z,97912.47
2023-02-23T17:51:30.680Z,97905.56
2023-02-23T17:53:57.954Z,97908.63
2023-02-23T17:56:25.501Z,97902.78
2023-02-23T17:58:52.949Z,97904.19
2023-02-23T18:01:20.368Z,97900.72
2023-02-23T18:03:47.963Z,97902.94
2023-02-23T18:06:17.209Z,97902.38
2023-02-23T18:08:45.245Z,97906.44
2023-02-23T18:11:12.787Z,97910.53
2023-02-23T18:13:40.181Z,97905.84
2023-02-23T18:16:10.480Z,97910.69
2023-02-23T18:18:45.043Z,97911.72
2023-02-23T18:21:19.775Z,97906.00
2023-02-23T18:23:47.784Z,97909.13
2023-02-23T18:26:24.652Z,97915.38
2023-02-23T18:28:51.902Z,97911.34
2023-02-23T18:31:22.713Z,97909.94
2023-02-23T18:33:52.713Z,97920.31
2023-02-23T18:36:24.255Z,97902.38
2023-02-23T18:38:51.764Z,97909.31
2023-02-23T18:41:19.137Z,97908.09
2023-02-23T18:43:46.648Z,97901.72
2023-02-23T18:46:14.433Z,97892.56
2023-02-23T18:48:42.157Z,97900.94
2023-02-23T18:51:14.382Z,97897.84
2023-02-23T18:53:41.815Z,97900.34
2023-02-23T18:56:12.852Z,97903.19
2023-02-23T18:58:40.405Z,97905.44
2023-02-23T19:01:12.874Z,97893.34
2023-02-23T19:03:41.501Z,97899.50
2023-02-23T19:06:12.033Z,97900.34
2023-02-23T19:08:39.714Z,97901.53
2023-02-23T19:11:07.244Z,97900.75
2023-02-23T19:13:34.382Z,97906.44
2023-02-23T19:16:06.966Z,97900.69
2023-02-23T19:18:35.597Z,97896.22
2023-02-23T19:21:04.102Z,97886.00
2023-02-23T19:23:31.546Z,97889.69
2023-02-23T19:26:02.193Z,97885.63
2023-02-23T19:28:30.059Z,97889.72
2023-02-23T19:31:09.655Z,97889.50
2023-02-23T19:33:39.904Z,97893.81
2023-02-23T19:36:13.172Z,97891.31
2023-02-23T19:38:42.421Z,97888.91
2023-02-23T19:41:12.767Z,97882.16
2023-02-23T19:43:39.667Z,97888.06
2023-02-23T19:46:09.874Z,97892.97
2023-02-23T19:48:37.885Z,97890.53
2023-02-23T19:51:05.766Z,97889.69
2023-02-23T19:53:33.422Z,97892.97
2023-02-23T19:56:11.618Z,97890.09
2023-02-23T19:58:39.058Z,97899.31
2023-02-23T20:01:08.874Z,97888.66
2023-02-23T20:03:39.448Z,97886.84
2023-02-23T20:06:07.374Z,97894.63
2023-02-23T20:08:34.701Z,97897.47
2023-02-23T20:11:06.599Z,97898.88
2023-02-23T20:13:34.729Z,97896.66
2023-02-23T20:16:11.317Z,97906.47
2023-02-23T20:18:40.140Z,97892.75
2023-02-23T20:21:23.308Z,97898.06
2023-02-23T20:23:50.993Z,97899.72
2023-02-23T20:26:31.948Z,97887.84
2023-02-23T20:28:59.315Z,97888.47
2023-02-23T20:31:30.579Z,97892.75
2023-02-23T20:34:01.905Z,97887.66
2023-02-23T20:36:28.914Z,97883.19
2023-02-23T20:38:56.245Z,97889.50
2023-02-23T20:41:25.516Z,97885.22
2023-02-23T20:43:52.695Z,97884.00
2023-02-23T20:46:20.244Z,97893.63
2023-02-23T20:48:49.130Z,97888.88
2023-02-23T20:51:18.969Z,97895.22
2023-02-23T20:53:48.126Z,97903.19
2023-02-23T20:56:18.563Z,97901.97
2023-02-23T20:58:46.350Z,97908.31
2023-02-23T21:01:16.821Z,97895.44
2023-02-23T21:03:44.255Z,97893.16
2023-02-23T21:06:11.689Z,97892.34
2023-02-23T21:08:42.310Z,97888.50
2023-02-23T21:11:09.353Z,97884.34
2023-02-23T21:13:36.868Z,97883.91
2023-02-23T21:16:03.947Z,97890.41
2023-02-23T21:18:31.680Z,97883.94
2023-02-23T21:21:06.929Z,97882.56
2023-02-23T21:23:33.833Z,97880.72
2023-02-23T21:26:09.696Z,97884.59
2023-02-23T21:28:39.221Z,97884.19
2023-02-23T21:31:06.674Z,97883.19
2023-02-23T21:33:33.579Z,97882.34
2023-02-23T21:36:00.467Z,97878.28
2023-02-23T21:38:27.358Z,97882.72
2023-02-23T21:40:54.245Z,97877.06
2023-02-23T21:43:23.030Z,97878.69
2023-02-23T21:45:49.926Z,97888.75
2023-02-23T21:48:16.864Z,97881.22
2023-02-23T21:50:44.576Z,97882.34
2023-02-23T21:53:12.600Z,97879.47
2023-02-23T21:55:42.616Z,97885.63
2023-02-23T21:58:09.847Z,97879.88
2023-02-23T22:00:37.032Z,97877.41
2023-02-23T22:03:04.503Z,97881.44
2023-02-23T22:05:35.059Z,97877.81
2023-02-23T22:08:02.433Z,97875.00
2023-02-23T22:10:32.049Z,97873.78
2023-02-23T22:13:02.949Z,97877.00
2023-02-23T22:15:30.368Z,97879.09
2023-02-23T22:17:57.264Z,97873.78
2023-02-23T22:20:25.448Z,97881.44
2023-02-23T22:22:52.939Z,97881.13
2023-02-23T22:25:20.529Z,97877.06
2023-02-23T22:27:47.882Z,97881.13
2023-02-23T22:30:15.618Z,97873.19
2023-02-23T22:32:43.509Z,97876.84
2023-02-23T22:35:11.405Z,97880.69
2023-02-23T22:37:38.978Z,97871.31
2023-02-23T22:40:25.150Z,97872.34
2023-02-23T22:42:54.170Z,97877.22
2023-02-23T22:45:21.453Z,97866.19
2023-02-23T22:47:48.895Z,97868.66
2023-02-23T22:50:19.193Z,97872.13
2023-02-23T22:52:47.032Z,97871.09
2023-02-23T22:55:14.437Z,97869.19
2023-02-23T22:57:41.790Z,97867.75
2023-02-23T23:00:11.745Z,97851.53
2023-02-23T23:02:38.976Z,97857.44
2023-02-23T23:05:07.034Z,97856.22
2023-02-23T23:07:34.048Z,97859.81
2023-02-23T23:10:05.701Z,97856.94
2023-02-23T23:12:34.353Z,97859.38
2023-02-23T23:15:02.269Z,97856.94
2023-02-23T23:17:30.821Z,97856.84
2023-02-23T23:20:02.919Z,97846.78
2023-02-23T23:22:31.540Z,97852.66
2023-02-23T23:24:58.483Z,97840.72
2023-02-23T23:27:25.616Z,97843.16
2023-02-23T23:29:52.513Z,97840.72
2023-02-23T23:32:21.064Z,97832.97
2023-02-23T23:34:49.325Z,97832.78
2023-02-23T23:37:18.466Z,97827.50
2023-02-23T23:39:45.996Z,97831.75
2023-02-23T23:42:13.310Z,97833.97
2023-02-23T23:44:40.305Z,97826.34
2023-02-23T23:47:07.918Z,97820.25
2023-02-23T23:49:38.006Z,97813.59
2023-02-23T23:52:06.211Z,97806.44
2023-02-23T23:54:39.421Z,97815.16
2023-02-23T23:57:07.182Z,97807.25
2023-02-23T23:59:35.787Z,97810.75
